| Record Date MM/DD/YYYY | Record Julian Date NNN day of the year | Air Temperature Max (Degrees Fahrenheit F) | Time Max Air Temperature HH:MM:SS This is the time of max air temperature standard time. | Air Temperature Min (Degrees Fahrenheit F) | Time Min Air Temperature HH:MM:SS This is the time of min air temperature standard time. | Air Temperature Observed (Degrees Fahrenheit F) This is an instantaneous reading for air temperature at 7:00:00 standard time. | Relative Humidity Max (Percent) | Time Max Relative Humidity HH:MM:SS This is the time of max relative humidity standard time. | Relative Humidity Min (Percent) | Time Min Relative Humidity HH:MM:SS This is the time of min relative humidity standard time. | Relative Humidity Observed (Percent) This is an instantaneous reading at 7:00:00 standard time. | Precipitation (Inches n.nn) total rain fall that occurred for the day. | Pan Evaporation (Inches n.nn) total evaporation that occured for the day. | Wind Run (Miles) Wind travel for the day. | Wind Speed (Miles Per Hour) Resultant / Average speed for the day. | Wind Direction (Degrees) Resultant Direction for the day | Solar Radiation (Langley's) that occurred for the day. | Soil Temperature Max at 2 inch depth (Degrees Fahrenheit F) that occurred during the day. | Time Max Soil temperature at 2 inches HH:MM:SS This is the time of max 2 inch soil temperature standard time. | Soil Temperature Min at 2 inch depth (Degrees Fahrenheit F) that occurred during the day. | Time Min Soil temperature at 2 inches HH:MM:SS This is the time of min 2 inch soil temperature standard time. | Soil Temperature Observed at 2 inch depth (Degrees Fahrenheit F) This is an instantaneous reading 2 inch soil temperature at 7:00:00 standard time. | Soil Temperature Max at 4 inch depth (Degrees Fahrenheit F) that occurred during the day. | Time Max Soil temperature at 4 inches HH:MM:SS This is the time of max 4 inch soil temperature standard time. | Soil Temperature Min at 4 inch depth (Degrees Fahrenheit F) that occurred during the day. | Time Min Soil temperature at 4 inches HH:MM:SS This is the time of min 4 inch soil temperature standard time. | Soil Temperature Observed at 4 inch depth (Degrees Fahrenheit F) This is an instantaneous reading 4 inch soil temperature at 7:00:00 standard time. | DD50 Degree Days 50 Fahrenheit. | Adjusted DD50 Degree Days 50 Fahrenheit adjusted for latitude. | DD60 Degree Days 60 Fahrenheit. |
|---|---|---|---|---|---|---|---|---|---|---|---|---|---|---|---|---|---|---|---|---|---|---|---|---|---|---|---|---|---|---|
| 08/02/2026 | 214 | 81 | 12:42:03 | 66 | 23:59:05 | 70 | 95 | 23:02:02 | 72 | 14:12:03 | 93 | 0.03 | 1 | 0.0 | 305 | 270 | 79 | 15:28:02 | 75 | 23:54:00 | 76 | 78 | 16:37:02 | 76 | 23:57:03 | 77 | 23.5 | 24.71 | 13.5 | |
| 08/03/2026 | 215 | 90 | 13:34:05 | 64 | 4:57:01 | 71 | 97 | 6:24:01 | 58 | 12:23:00 | 95 | 0 | 1 | 0.1 | 225 | 542 | 80 | 14:27:02 | 73 | 6:05:02 | 74 | 79 | 15:38:03 | 74 | 6:28:05 | 74 | 27 | 27.18 | 17 | |
| 08/04/2026 | 216 | 92 | 14:19:03 | 62 | 5:28:01 | 72 | 97 | 6:18:05 | 51 | 15:43:01 | 96 | 0 | 2 | 0.1 | 64 | 581 | 80 | 14:24:04 | 72 | 5:55:04 | 73 | 79 | 14:48:05 | 73 | 6:19:03 | 73 | 27 | 27.14 | 17 | |
| 08/05/2026 | 217 | 95 | 15:14:04 | 64 | 4:43:00 | 73 | 97 | 6:39:02 | 45 | 14:34:05 | 94 | 0 | 0 | 0.0 | 35 | 574 | 80 | 14:03:02 | 73 | 6:09:00 | 73 | 79 | 14:33:02 | 74 | 6:31:01 | 74 | 29.5 | 27.11 | 19.5 | |
| 08/06/2026 | 218 | 97 | 15:45:03 | 65 | 5:13:03 | 75 | 97 | 6:19:01 | 43 | 13:17:04 | 96 | 0.03 | 1 | 0.0 | 83 | 509 | 81 | 14:32:00 | 73 | 5:25:05 | 74 | 80 | 17:20:00 | 74 | 6:07:05 | 74 | 31 | 27.07 | 21 | |
| 08/07/2026 | 219 | 94 | 12:42:03 | 69 | 2:16:03 | 77 | 96 | 6:17:03 | 60 | 12:44:04 | 90 | 0 | 0 | 0.0 | 0 | 395 | 81 | 15:05:01 | 75 | 5:54:00 | 75 | 80 | 16:06:04 | 75 | 6:26:04 | 76 | 31.5 | 27.04 | 21.5 | |
| 08/08/2026 | 220 | 92 | 9:53:04 | 70 | 4:17:03 | 78 | 97 | 6:36:03 | 63 | 9:55:00 | 94 | 0.37 | 0 | 0.0 | 0 | 299 | 81 | 11:49:05 | 75 | 5:49:04 | 76 | 79 | 12:03:05 | 76 | 6:16:02 | 76 | 31 | 27 | 21 | |
| 08/09/2026 | 221 | 95 | 15:08:04 | 69 | 5:26:03 | 75 | 97 | 6:19:00 | 58 | 11:58:02 | 94 | 0.01 | 0 | 0.0 | 0 | 480 | 83 | 14:54:04 | 75 | 6:11:04 | 75 | 82 | 15:40:04 | 76 | 6:45:04 | 76 | 32 | 26.97 | 22 | |
| 08/10/2026 | 222 | 99 | 15:05:05 | 72 | 5:35:03 | 80 | 94 | 6:21:05 | 50 | 14:03:00 | 81 | 0 | 0 | 0.0 | 0 | 492 | 85 | 14:44:03 | 76 | 5:54:03 | 77 | 83 | 14:56:00 | 77 | 6:50:05 | 77 | 35.5 | 26.93 | 25.5 | |
| 08/11/2026 | 223 | 97 | 14:58:02 | 71 | 5:21:04 | 79 | 95 | 6:15:02 | 55 | 14:59:04 | 84 | 0 | 0 | 0.0 | 0 | 545 | 87 | 13:32:00 | 77 | 5:42:04 | 77 | 85 | 14:44:05 | 78 | 6:24:01 | 78 | 34 | 26.9 | 24 | |
| 08/12/2026 | 224 | 97 | 15:10:00 | 73 | 1:24:03 | 83 | 94 | 1:47:02 | 55 | 15:28:01 | 77 | 0 | 0 | 0.0 | 0 | 472 | 87 | 13:14:02 | 78 | 5:53:05 | 78 | 85 | 15:01:04 | 78 | 6:34:00 | 78 | 35 | 26.86 | 25 | |
| 08/13/2026 | 225 | 99 | 15:36:01 | 73 | 4:01:02 | 84 | 93 | 0:00:00 | 50 | 15:35:02 | 75 | 0 | 0 | 0.0 | 0 | 516 | 88 | 13:34:01 | 78 | 5:57:02 | 79 | 86 | 14:54:01 | 79 | 6:51:00 | 79 | 36 | 26.83 | 26 | |
| 08/14/2026 | 226 | 100 | 13:25:03 | 72 | 23:26:04 | 83 | 93 | 23:57:03 | 48 | 14:20:05 | 77 | 0 | 0 | 0.0 | 0 | 545 | 89 | 14:07:05 | 79 | 5:54:03 | 79 | 87 | 15:04:00 | 79 | 6:42:01 | 79 | 36 | 26.79 | 26 | |
| 08/15/2026 | 227 | 102 | 14:44:04 | 69 | 5:25:04 | 80 | 96 | 6:21:03 | 36 | 14:40:04 | 84 | 0 | 0 | 0.0 | 0 | 554 | 89 | 13:28:01 | 78 | 5:54:02 | 78 | 87 | 14:49:05 | 79 | 6:46:02 | 79 | 35.5 | 26.75 | 25.5 | |
| 08/16/2026 | 228 | 103 | 13:44:02 | 69 | 5:29:05 | 82 | 96 | 6:11:01 | 40 | 15:52:01 | 81 | 0 | 0 | 0.0 | 0 | 470 | 88 | 14:13:00 | 78 | 6:00:00 | 78 | 86 | 15:13:03 | 79 | 6:29:00 | 79 | 36 | 26.72 | 26 | |
| 08/17/2026 | 229 | 102 | 14:09:01 | 72 | 23:59:05 | 86 | 94 | 23:50:03 | 49 | 11:47:05 | 67 | 0 | 0 | 0.0 | 0 | 462 | 91 | 13:27:01 | 80 | 6:17:03 | 80 | 88 | 14:54:05 | 81 | 6:51:05 | 81 | 37 | 26.68 | 27 | |
| 08/18/2026 | 230 | 98 | 14:23:00 | 69 | 5:32:04 | 76 | 96 | 6:23:03 | 51 | 13:42:03 | 92 | 0 | 0 | 0.0 | 0 | 488 | 89 | 13:55:02 | 79 | 5:58:01 | 79 | 87 | 14:45:04 | 79 | 6:31:02 | 79 | 33.5 | 26.64 | 23.5 | |
| 08/19/2026 | 231 | 98 | 11:49:00 | 69 | 4:36:04 | 78 | 97 | 6:43:04 | 59 | 12:02:00 | 95 | 0 | 0 | 0.0 | 0 | 447 | 89 | 14:39:02 | 78 | 6:04:05 | 79 | 87 | 14:51:03 | 79 | 6:30:03 | 79 | 33.5 | 26.61 | 23.5 | |
| 08/20/2026 | 232 | 98 | 15:31:05 | 72 | 5:09:00 | 77 | 94 | 23:47:02 | 53 | 15:33:03 | 84 | 0.03 | 0 | 0.0 | 0 | 328 | 86 | 14:42:01 | 80 | 5:58:05 | 80 | 84 | 15:21:02 | 80 | 6:43:05 | 80 | 35 | 26.57 | 25 | |
| 08/21/2026 | 233 | 98 | 13:49:01 | 66 | 23:55:03 | 78 | 96 | 6:27:01 | 42 | 15:21:02 | 92 | 0 | 0 | 0.0 | 0 | 520 | 90 | 14:40:03 | 79 | 6:19:05 | 79 | 87 | 14:47:04 | 80 | 6:37:03 | 80 | 32 | 26.53 | 22 | |
| 08/22/2026 | 234 | 102 | 14:04:04 | 63 | 5:11:02 | 74 | 97 | 6:14:00 | 38 | 14:02:01 | 93 | 0.23 | 0 | 0.0 | 0 | 415 | 89 | 14:14:02 | 77 | 6:12:03 | 77 | 87 | 14:33:01 | 78 | 6:25:05 | 78 | 32.5 | 26.5 | 22.5 | |
| 08/23/2026 | 235 | 93 | 15:23:00 | 66 | 23:52:05 | 73 | 96 | 6:32:01 | 46 | 13:55:00 | 94 | 0 | 0 | 0.0 | 0 | 515 | 87 | 14:06:05 | 76 | 6:05:04 | 76 | 85 | 14:52:05 | 77 | 6:54:03 | 77 | 29.5 | 26.46 | 19.5 | |
| 08/24/2026 | 236 | 97 | 15:35:05 | 66 | 0:04:02 | 69 | 95 | 4:54:03 | 41 | 15:38:03 | 94 | 0 | 0 | 0.0 | 0 | 500 | 87 | 13:32:04 | 76 | 5:42:02 | 76 | 85 | 14:52:02 | 77 | 7:24:03 | 77 | 31.5 | 26.42 | 21.5 | |
| 08/25/2026 | 237 | 96 | 13:22:02 | 67 | 0:30:01 | 72 | 95 | 6:33:01 | 50 | 9:04:04 | 88 | 0 | 0 | 0.0 | 0 | 418 | 87 | 13:55:02 | 76 | 6:11:00 | 76 | 85 | 14:36:02 | 77 | 6:46:01 | 77 | 31.5 | 26.38 | 21.5 | |
| 08/26/2026 | 238 | 91 | 15:03:04 | 71 | 5:29:05 | 77 | 96 | 6:29:05 | 60 | 14:20:01 | 95 | 0 | 0 | 0.0 | 0 | 363 | 86 | 14:43:00 | 78 | 6:04:03 | 78 | 84 | 14:52:01 | 79 | 6:18:04 | 79 | 31 | 26.35 | 21 | |
| 08/27/2026 | 239 | 97 | 13:56:04 | 66 | 5:40:02 | 72 | 96 | 7:00:00 | 46 | 15:40:01 | 96 | 0 | 0 | 0.0 | 0 | 474 | 88 | 14:11:02 | 77 | 6:02:05 | 77 | 86 | 14:34:05 | 77 | 6:29:00 | 77 | 31.5 | 26.31 | 21.5 | |
| 08/28/2026 | 240 | 95 | 13:51:04 | 61 | 5:31:04 | 73 | 96 | 6:39:04 | 35 | 13:51:05 | 94 | 0 | 0 | 0.0 | 0 | 517 | 88 | 14:35:05 | 75 | 6:23:03 | 75 | 86 | 14:46:01 | 76 | 6:46:04 | 76 | 28 | 26.27 | 18 | |
| 08/29/2026 | 241 | 99 | 14:48:04 | 57 | 5:24:04 | 69 | 96 | 6:15:05 | 36 | 15:51:01 | 93 | 0 | 0 | 0.0 | 0 | 492 | 86 | 13:43:05 | 74 | 6:04:03 | 74 | 84 | 14:43:05 | 75 | 6:56:04 | 75 | 28 | 26.24 | 18 | |
| 08/30/2026 | 242 | 98 | 13:00:00 | 63 | 5:05:00 | 73 | 96 | 6:10:04 | 44 | 16:10:04 | 92 | 0 | 0 | 0.0 | 0 | 443 | 87 | 13:29:05 | 75 | 6:16:00 | 75 | 85 | 14:42:02 | 76 | 6:28:04 | 76 | 30.5 | 26.2 | 20.5 | |
| 08/31/2026 | 243 | 101 | 13:23:04 | 67 | 5:40:02 | 78 | 96 | 6:22:05 | 42 | 13:23:03 | 88 | 0 | 0 | 0.0 | 0 | 439 | 89 | 13:42:00 | 76 | 6:16:03 | 76 | 86 | 14:17:05 | 77 | 6:31:02 | 77 | 34 | 26.16 | 24 | |
| Average | 96.53 | 67.43 | 76.23 | 95.67 | 49.2 | 88.93 | 0.02 | 0.17 | 468.83 | 85.9 | 76.37 | 76.63 | 84.03 | 77.17 | 77.23 | 31.98 | 26.61 | 21.98 | ||||||||||||
| Total | 0.7 | 959.5 | 798.32 | 659.5 |